Huvudsida
METAR-TAF:

METAR-TAF

Flygplatser :

Sandy Lake Airport

Sandy Lake, Ontario, Kanada

latitud: 53-03-51N, longitud: 093-20-40W, höjd: 290 m

Aktuellt väderrapport

Denna rapport gjordes för 40 minuter sedan, klockan 15:00 UTC
Vind 8 kt från nord, varierande mellan nord/nordväst och nord/nordost
Temperatur -9°C
Fuktighet 67%
Tryck 1019 hPa
Sikt: 14.5 km
Klar himmel

METAR: CZSJ 291500Z AUTO 36008KT 330V030 9SM CLR M09/M14 A3008 RMK SLP208

Tid: 10:40 (15:40 UTC)

Väderprognos

Denna rapport gjordes för 2 timmar och 58 minuter sedan, klockan 12:42 UTC
Prognos gäller från 29 kl. 12 UTC till 29 kl. 22 UTC
Vind 8 kt från nord
Sikt: 10 km
Spridda moln på en höjd av 1500 ft
Temporärt
från 29 kl. 12 UTC till 29 kl. 14 UTC
Brutna moln på en höjd av 1500 ft
Från 29 kl. 1800 UTC
Vind 8 kt från nord/nordost
Sikt: 10 km
Få moln på en höjd av 2000 ft

TAF: CZSJ 291242Z 2912/2922 36008KT P6SM SCT015 TEMPO 2912/2914 BKN015 FM291800 02008KT P6SM FEW020 RMK FCST BASED ON AUTO OBS. NXT FCST BY 291600Z

Aktuella väderrapporter och prognoser från 4000 flygplatser (METAR- och TAF-rapporter).

De tillgängliga stationerna syns som gula och röda prickar på kartan.

För musen över prickarna för att se namnen på stationerna.

Klicka sedan för att få väderrapporter och prognoser.

För att ändra kartan: Klicka på de gröna knapparna med ett svart kors på för att zooma in; den gröna knappen med ett streck på för att zooma ut; eller på de gröna pilarna för angränsande kartor.


METAR-TAF: